Gulkana, AK

8:53 PM AKST on December 28, 2014 (GMT -0900)
Gulkana | Change Station
CLOSE
Current Station
Airport
Location: Gulkana,
Elevation: 1578 ft
Nearby Weather Stations

Elev 1578 ft 62.16 °N, 145.46 °W | Updated 1 hour ago

Haze
Haze
5 °F
Feels Like -2 °F
N
4
Wind Variable Wind from North

Today
High -- | Low -- °F
--% Chance of Precip.
Yesterday
High -- | Low -- °F
Precip. -- in
10:08 AM 3:18 PM
First Quarter, 55% visible
Pressure 30.74 in
Visibility 6.0 miles
Clouds Clear
Windchill -2 °F
Dew Point 0 °F
Humidity 80%
Rainfall 0.00 in
Snow Depth Not available.
UV 0 out of 12
Pollen Not available.
Air Quality Not available.
Flu Activity Not available.
METAR PAGK 290453Z AUTO 36003KT 6SM HZ CLR M15/M18 A3055 RMK AO2 SLP408 T11501178 TSNO $

More Conditions Fewer Conditions

Pressure 30.74 in
Visibility 6.0 miles
Clouds Clear
Windchill -2 °F
Dew Point 0 °F
Humidity 80%
Rainfall 0.00 in
Snow Depth Not available.
UV 0 out of 12
Pollen Not available.
Air Quality Not available.
Flu Activity Not available.
METAR PAGK 290453Z AUTO 36003KT 6SM HZ CLR M15/M18 A3055 RMK AO2 SLP408 T11501178 TSNO $

More Conditions Fewer Conditions

10-Day Weather Forecast

Almanac

Astronomy

Dec. 28, 2014 Rise Set
Actual Time
Civil Twilight
Nautical Twilight
Astronomical Twilight
Moon
Length of Visible Light
Length of Day
Tomorrow will be .
, % of the Moon is Illuminated

Today's Extremes

State Highs State Lows

Community

WunderPhotos

Upload Photos

1,781,542 photos uploaded!

WunderBlogs® & News

Nearby

Air Quality

  Air Quality AQ Index Pollutant
Not available.

Snow Depth

Station Depth Elevation

Earthquake Activity

City Distance Mag. Time & Date
Minimum magnitude displayed is 2.5.

Coastal Water Temperatures

Place Temperature

Nearby Weather Stations